Time;durP1;ratioP1;P1;durP2;ratioP2;P2;SDS_P1;SDS_P2;PMS_P1;PMS_P2;Temp;Humidity;BMP_temperature;BMP_pressure;BME280_temperature;BME280_humidity;BME280_pressure;Samples;Min_cycle;Max_cycle;Signal;HPM_P1;HPM_P2
2023/09/25 00:01:06;;;;;;;1.80;0.70;;;;;;;10.86;100.00;99401.78;15271948;19;20089;-49
2023/09/25 00:06:30;;;;;;;1.70;0.85;;;;;;;10.81;100.00;99399.50;15267150;19;20014;-48
2023/09/25 00:11:55;;;;;;;0.60;0.60;;;;;;;10.75;100.00;99413.53;15273444;19;20018;-51
2023/09/25 00:17:22;;;;;;;1.30;0.70;;;;;;;10.70;100.00;99407.72;15262900;19;20021;-49
2023/09/25 00:22:48;;;;;;;1.23;0.90;;;;;;;10.62;100.00;99411.09;15274233;19;20078;-49
2023/09/25 00:28:12;;;;;;;0.73;0.73;;;;;;;10.57;100.00;99407.94;15270232;19;20022;-54
2023/09/25 00:33:40;;;;;;;1.10;0.90;;;;;;;10.47;100.00;99398.00;15269098;19;20010;-51
2023/09/25 00:39:11;;;;;;;1.20;0.98;;;;;;;10.44;100.00;99406.34;15264016;19;20022;-49
2023/09/25 00:44:36;;;;;;;1.77;1.20;;;;;;;10.41;100.00;99401.22;15271913;19;20054;-48
2023/09/25 00:50:03;;;;;;;2.15;1.13;;;;;;;10.37;100.00;99397.06;15259391;19;20010;-48
2023/09/25 00:55:29;;;;;;;1.10;1.00;;;;;;;10.38;100.00;99398.81;15269151;19;20478;-49
2023/09/25 01:00:54;;;;;;;1.02;0.90;;;;;;;10.36;100.00;99395.38;15270406;19;20014;-50
2023/09/25 01:06:24;;;;;;;1.63;1.17;;;;;;;10.30;100.00;99385.13;15266120;19;20018;-54
2023/09/25 01:11:49;;;;;;;2.15;0.90;;;;;;;10.22;100.00;99393.03;15267925;19;20086;-51
2023/09/25 01:17:13;;;;;;;2.15;1.10;;;;;;;10.15;100.00;99385.50;15266909;19;20015;-52
2023/09/25 01:22:41;;;;;;;1.00;0.80;;;;;;;10.08;100.00;99386.16;15260249;19;20830;-50
2023/09/25 01:28:07;;;;;;;1.45;0.88;;;;;;;10.05;100.00;99386.44;15263475;19;20022;-51
2023/09/25 01:33:33;;;;;;;1.67;0.90;;;;;;;9.99;100.00;99383.31;15267697;19;20345;-55
2023/09/25 01:39:08;;;;;;;1.30;0.70;;;;;;;9.99;100.00;99374.34;15273910;19;20011;-49
2023/09/25 01:44:33;;;;;;;0.68;0.68;;;;;;;9.96;100.00;99371.94;15281932;19;20017;-51
2023/09/25 01:49:58;;;;;;;1.23;0.80;;;;;;;9.91;100.00;99376.88;15274469;19;20356;-51
2023/09/25 01:55:25;;;;;;;1.02;0.80;;;;;;;9.88;100.00;99375.28;15275034;19;20467;-52
2023/09/25 02:00:51;;;;;;;1.58;0.90;;;;;;;9.84;100.00;99379.25;15278954;19;20026;-54
2023/09/25 02:06:17;;;;;;;1.35;0.95;;;;;;;9.77;100.00;99378.91;15273203;19;20433;-53
2023/09/25 02:11:44;;;;;;;1.83;0.80;;;;;;;9.74;100.00;99372.97;15274764;19;20015;-54
2023/09/25 02:17:09;;;;;;;1.55;1.00;;;;;;;9.69;100.00;99376.03;15276828;19;20056;-52
2023/09/25 02:22:33;;;;;;;1.92;1.00;;;;;;;9.64;100.00;99368.34;15277907;19;20428;-52
2023/09/25 02:28:00;;;;;;;0.80;0.80;;;;;;;9.62;100.00;99356.88;15266919;19;20018;-55
2023/09/25 02:33:25;;;;;;;1.95;1.10;;;;;;;9.59;100.00;99348.19;15279376;19;20014;-56
2023/09/25 02:38:50;;;;;;;1.00;0.90;;;;;;;9.56;100.00;99352.00;15277210;19;20088;-54
2023/09/25 02:44:17;;;;;;;1.60;1.00;;;;;;;9.53;100.00;99349.59;15273616;19;20039;-51
2023/09/25 02:49:43;;;;;;;1.80;0.90;;;;;;;9.49;100.00;99340.94;15272592;19;20017;-55
2023/09/25 02:55:09;;;;;;;0.80;0.80;;;;;;;9.49;100.00;99348.16;15275381;19;20074;-50
2023/09/25 03:00:39;;;;;;;2.08;1.00;;;;;;;9.47;100.00;99352.81;15261072;19;20023;-55
2023/09/25 03:06:04;;;;;;;2.13;0.90;;;;;;;9.43;100.00;99360.28;15274620;19;20491;-54
2023/09/25 03:11:30;;;;;;;3.20;1.10;;;;;;;9.42;100.00;99363.97;15274723;19;20703;-51
2023/09/25 03:16:58;;;;;;;0.90;0.90;;;;;;;9.46;100.00;99365.44;15271932;19;20022;-52
2023/09/25 03:22:23;;;;;;;1.38;0.90;;;;;;;9.53;100.00;99361.22;15276970;19;20362;-55
2023/09/25 03:27:48;;;;;;;1.50;0.90;;;;;;;9.55;100.00;99355.69;15273532;19;20022;-51
2023/09/25 03:33:16;;;;;;;1.92;0.98;;;;;;;9.59;100.00;99361.66;15272315;19;20078;-55
2023/09/25 03:38:43;;;;;;;1.27;0.90;;;;;;;9.59;100.00;99350.88;15273493;19;20010;-52
2023/09/25 03:44:08;;;;;;;2.25;1.10;;;;;;;9.56;100.00;99347.50;15271877;19;20440;-52
2023/09/25 03:49:37;;;;;;;2.42;0.88;;;;;;;9.55;100.00;99351.19;15266128;19;20006;-56
2023/09/25 03:55:02;;;;;;;1.83;0.98;;;;;;;9.44;100.00;99334.25;15274184;19;20730;-53
2023/09/25 04:00:27;;;;;;;1.60;0.90;;;;;;;9.32;100.00;99337.00;15261414;19;20015;-54
2023/09/25 04:05:55;;;;;;;1.75;1.00;;;;;;;9.28;100.00;99342.78;15273007;19;20488;-54
2023/09/25 04:11:20;;;;;;;2.17;1.20;;;;;;;9.19;100.00;99350.63;15272627;19;20039;-52
2023/09/25 04:16:45;;;;;;;1.95;1.20;;;;;;;9.12;100.00;99351.28;15268968;19;20060;-54
2023/09/25 04:22:12;;;;;;;2.65;1.00;;;;;;;9.05;100.00;99364.38;15265770;19;20021;-53
2023/09/25 04:27:37;;;;;;;1.58;1.10;;;;;;;8.98;100.00;99373.94;15270091;19;20022;-53
2023/09/25 04:33:03;;;;;;;1.70;1.33;;;;;;;8.94;100.00;99384.06;15262526;19;20018;-52
2023/09/25 04:38:32;;;;;;;1.60;1.35;;;;;;;8.94;100.00;99390.31;15268268;19;20037;-53
2023/09/25 04:43:56;;;;;;;1.75;1.23;;;;;;;8.91;100.00;99392.41;15270033;19;20355;-52
2023/09/25 04:49:21;;;;;;;1.55;1.38;;;;;;;8.90;100.00;99386.16;15268566;19;20021;-52
2023/09/25 04:54:48;;;;;;;2.38;1.60;;;;;;;8.90;100.00;99396.09;15266679;19;20027;-52
2023/09/25 05:00:25;;;;;;;1.27;1.17;;;;;;;8.89;100.00;99387.16;15266153;19;20365;-53
2023/09/25 05:05:52;;;;;;;2.67;1.50;;;;;;;8.87;100.00;99386.44;15261810;19;20079;-52
2023/09/25 05:11:19;;;;;;;1.75;1.27;;;;;;;8.81;100.00;99381.56;15265998;19;20410;-51
2023/09/25 05:16:44;;;;;;;2.03;1.50;;;;;;;8.80;100.00;99401.34;15269581;19;20753;-52
2023/09/25 05:22:09;;;;;;;1.88;1.40;;;;;;;8.78;100.00;99397.94;15268307;19;20800;-52
2023/09/25 05:27:37;;;;;;;2.10;1.20;;;;;;;8.68;100.00;99391.59;15263177;19;20010;-51
2023/09/25 05:33:01;;;;;;;2.42;1.38;;;;;;;8.64;100.00;99388.31;15269607;19;20019;-52
2023/09/25 05:38:33;;;;;;;3.47;1.50;;;;;;;8.64;100.00;99391.00;15256911;19;20018;-55
2023/09/25 05:44:01;;;;;;;2.93;1.60;;;;;;;8.66;100.00;99397.13;15268967;19;20020;-55
2023/09/25 05:49:25;;;;;;;3.17;1.60;;;;;;;8.68;100.00;99394.28;15261907;19;20027;-55
2023/09/25 05:54:51;;;;;;;2.40;1.70;;;;;;;8.72;100.00;99401.97;15267923;19;20021;-54
2023/09/25 06:00:19;;;;;;;3.28;1.50;;;;;;;8.79;100.00;99399.63;15253464;19;20021;-53
2023/09/25 06:05:45;;;;;;;2.10;1.58;;;;;;;8.86;100.00;99408.06;15266908;19;20035;-54
2023/09/25 06:11:10;;;;;;;2.17;1.30;;;;;;;8.93;100.00;99411.97;15259720;19;20351;-52
2023/09/25 06:16:39;;;;;;;3.15;1.70;;;;;;;9.02;100.00;99426.44;15261980;19;20015;-53
2023/09/25 06:22:04;;;;;;;3.80;1.60;;;;;;;9.08;100.00;99426.81;15268805;19;20006;-52
2023/09/25 06:27:30;;;;;;;2.45;1.60;;;;;;;9.18;100.00;99432.28;15277367;19;20014;-54
2023/09/25 06:32:57;;;;;;;2.00;1.70;;;;;;;9.29;100.00;99438.59;15274303;19;20025;-54
2023/09/25 06:38:22;;;;;;;2.22;1.55;;;;;;;9.42;100.00;99433.91;15277776;19;20028;-55
2023/09/25 06:43:47;;;;;;;2.63;1.60;;;;;;;9.54;100.00;99427.50;15269957;19;20425;-53
2023/09/25 06:49:19;;;;;;;2.60;1.50;;;;;;;9.69;100.00;99437.94;15273367;19;20452;-54
2023/09/25 06:54:44;;;;;;;2.42;1.73;;;;;;;9.81;100.00;99423.44;15279857;19;20032;-51
2023/09/25 07:00:10;;;;;;;2.85;1.50;;;;;;;10.01;100.00;99418.16;15272981;19;20014;-51
2023/09/25 07:05:40;;;;;;;3.85;1.77;;;;;;;10.20;100.00;99416.53;15273432;19;20017;-56
2023/09/25 07:11:05;;;;;;;4.05;1.70;;;;;;;10.44;100.00;99418.97;15273260;19;20011;-54
2023/09/25 07:16:29;;;;;;;2.85;1.50;;;;;;;10.61;100.00;99421.00;15270935;19;20021;-55
2023/09/25 07:21:50;;;;;;;2.55;1.60;;;;;;;10.83;100.00;99416.38;15256308;19;20082;-54
2023/09/25 07:27:16;;;;;;;3.30;1.40;;;;;;;11.08;100.00;99411.44;15277155;19;20094;-56
2023/09/25 07:32:42;;;;;;;2.42;1.38;;;;;;;11.28;100.00;99400.69;15276787;19;20467;-52
2023/09/25 07:38:09;;;;;;;2.55;1.30;;;;;;;11.54;100.00;99400.97;15268705;19;20046;-56
2023/09/25 07:43:34;;;;;;;2.00;1.30;;;;;;;11.74;100.00;99392.81;15277738;19;20010;-56
2023/09/25 07:49:14;;;;;;;2.65;1.00;;;;;;;12.06;100.00;99384.41;15267408;19;20018;-53
2023/09/25 07:54:41;;;;;;;2.08;0.90;;;;;;;12.28;100.00;99361.56;15276045;19;20014;-49
2023/09/25 08:00:15;;;;;;;2.15;0.98;;;;;;;12.57;100.00;99360.56;15271625;19;20014;-52
2023/09/25 08:05:40;;;;;;;2.78;0.90;;;;;;;12.85;100.00;99352.44;15270613;19;20014;-52
2023/09/25 08:11:07;;;;;;;2.20;0.90;;;;;;;13.13;100.00;99344.22;15265235;19;20389;-51
2023/09/25 08:16:32;;;;;;;1.77;0.90;;;;;;;13.35;100.00;99339.34;15273186;19;20015;-54
2023/09/25 08:21:57;;;;;;;2.20;1.00;;;;;;;13.58;100.00;99336.19;15267027;19;20020;-52
2023/09/25 08:27:24;;;;;;;1.98;0.98;;;;;;;13.74;100.00;99330.84;15272980;19;20018;-52
2023/09/25 08:32:49;;;;;;;2.50;1.00;;;;;;;13.96;100.00;99331.31;15272968;19;20019;-49
2023/09/25 08:38:13;;;;;;;2.15;0.88;;;;;;;14.27;100.00;99319.97;15269394;19;20015;-50
2023/09/25 08:43:42;;;;;;;1.23;0.88;;;;;;;14.55;100.00;99326.00;15268378;19;20617;-51
2023/09/25 08:49:07;;;;;;;5.30;0.90;;;;;;;14.70;100.00;99323.53;15269056;19;20026;-49
2023/09/25 08:54:32;;;;;;;1.77;0.90;;;;;;;14.93;100.00;99331.03;15264950;19;20021;-53
2023/09/25 09:00:00;;;;;;;1.95;0.90;;;;;;;15.10;100.00;99316.47;15269258;19;20003;-49
2023/09/25 09:05:26;;;;;;;1.85;0.90;;;;;;;15.37;100.00;99317.13;14758447;19;10000060;-51
2023/09/25 09:10:53;;;;;;;6.05;2.55;;;;;;;15.54;100.00;99317.13;15269012;19;20017;-50
2023/09/25 09:16:23;;;;;;;1.70;0.82;;;;;;;15.71;100.00;99315.25;15272286;19;20046;-53
2023/09/25 09:21:47;;;;;;;3.00;0.85;;;;;;;15.85;100.00;99306.44;15270354;19;20066;-52
2023/09/25 09:27:14;;;;;;;2.00;0.88;;;;;;;15.98;100.00;99305.88;15262368;19;20011;-51
2023/09/25 09:32:41;;;;;;;4.60;1.00;;;;;;;16.12;100.00;99309.72;15269510;19;20109;-53
2023/09/25 09:38:08;;;;;;;2.70;0.90;;;;;;;16.28;100.00;99295.25;15265149;19;20549;-54
2023/09/25 09:43:32;;;;;;;1.55;0.73;;;;;;;16.53;100.00;99295.09;15265318;19;20070;-52
2023/09/25 09:49:01;;;;;;;1.23;0.70;;;;;;;16.68;100.00;99286.16;15265115;19;20015;-51
2023/09/25 09:54:28;;;;;;;1.73;0.90;;;;;;;16.99;100.00;99290.78;15268170;19;20014;-51
2023/09/25 09:59:53;;;;;;;1.98;0.60;;;;;;;17.13;100.00;99289.13;15266752;19;20845;-55
2023/09/25 10:05:24;;;;;;;1.45;0.70;;;;;;;17.35;100.00;99287.38;15284016;19;20022;-54
2023/09/25 10:10:52;;;;;;;1.23;0.65;;;;;;;17.50;100.00;99280.09;15278612;19;20006;-52
2023/09/25 10:16:16;;;;;;;0.77;0.68;;;;;;;17.61;100.00;99273.38;15277074;19;20018;-51
2023/09/25 10:22:13;;;;;;;1.10;0.70;;;;;;;17.68;100.00;99259.84;15281459;19;20018;-53
2023/09/25 10:27:40;;;;;;;1.55;0.60;;;;;;;17.85;100.00;99271.41;15275370;19;20018;-53
2023/09/25 10:33:07;;;;;;;0.88;0.60;;;;;;;17.91;100.00;99265.19;15280983;19;20351;-53
2023/09/25 10:38:36;;;;;;;1.17;0.70;;;;;;;18.05;100.00;99274.41;15277272;19;20018;-51
2023/09/25 10:44:07;;;;;;;1.30;0.70;;;;;;;18.25;100.00;99260.22;15274926;19;20015;-54
2023/09/25 10:49:32;;;;;;;0.85;0.60;;;;;;;18.37;100.00;99264.16;15264074;19;20014;-49
2023/09/25 10:54:59;;;;;;;1.42;0.70;;;;;;;18.46;100.00;99262.16;15274482;19;20014;-53
2023/09/25 11:00:25;;;;;;;1.77;0.70;;;;;;;18.53;100.00;99252.16;15263458;19;20472;-54
2023/09/25 11:05:49;;;;;;;1.27;0.63;;;;;;;18.70;100.00;99246.47;15268101;19;20503;-52
2023/09/25 11:11:18;;;;;;;1.38;0.70;;;;;;;18.85;100.00;99243.66;15266596;19;20018;-51
2023/09/25 11:16:43;;;;;;;0.73;0.70;;;;;;;18.92;100.00;99233.66;15269525;19;20459;-53
2023/09/25 11:22:09;;;;;;;2.40;0.70;;;;;;;18.93;100.00;99228.00;15267916;19;20017;-54
2023/09/25 11:27:36;;;;;;;1.10;0.70;;;;;;;18.99;100.00;99218.22;15269017;19;20392;-51
2023/09/25 11:33:07;;;;;;;3.17;0.85;;;;;;;19.09;100.00;99210.53;15263392;19;20085;-55
2023/09/25 11:38:28;;;;;;;1.33;0.65;;;;;;;19.30;100.00;99197.84;15269870;19;20014;-53
2023/09/25 11:44:04;;;;;;;2.33;0.60;;;;;;;19.48;100.00;99201.97;15275305;19;20018;-53
2023/09/25 11:49:31;;;;;;;0.98;0.70;;;;;;;19.74;100.00;99203.16;15271483;19;20097;-55
2023/09/25 11:54:56;;;;;;;0.93;0.50;;;;;;;19.91;100.00;99204.56;15265165;19;20687;-56
2023/09/25 12:00:24;;;;;;;0.95;0.60;;;;;;;20.04;100.00;99192.00;15267318;19;20053;-52
2023/09/25 12:05:52;;;;;;;1.00;0.70;;;;;;;20.17;100.00;99184.69;15266628;19;20017;-56
2023/09/25 12:11:17;;;;;;;1.20;0.65;;;;;;;20.32;100.00;99179.03;15267259;19;20025;-56
2023/09/25 12:16:44;;;;;;;0.70;0.50;;;;;;;20.37;100.00;99185.78;15270515;19;20010;-53
2023/09/25 12:22:09;;;;;;;1.10;0.65;;;;;;;20.53;100.00;99179.09;15272410;19;20347;-55
2023/09/25 12:27:33;;;;;;;8.70;0.80;;;;;;;20.72;100.00;99172.78;15266745;19;20487;-57
2023/09/25 12:33:01;;;;;;;1.10;0.50;;;;;;;20.96;93.05;99173.25;15270378;19;20018;-55
2023/09/25 12:38:26;;;;;;;3.85;0.60;;;;;;;21.20;86.18;99168.19;15265353;19;20019;-55
2023/09/25 12:43:51;;;;;;;1.00;0.50;;;;;;;21.24;79.37;99156.56;15272136;19;20414;-54
2023/09/25 12:49:25;;;;;;;1.00;0.35;;;;;;;21.45;86.86;99159.28;15267455;19;20028;-57
2023/09/25 12:54:51;;;;;;;0.88;0.50;;;;;;;21.68;78.86;99153.38;15271569;19;20018;-54
2023/09/25 13:00:18;;;;;;;2.58;0.70;;;;;;;21.94;87.08;99154.31;15262639;19;20046;-51
2023/09/25 13:05:46;;;;;;;1.00;0.50;;;;;;;22.21;77.70;99148.69;15269273;19;20228;-55
2023/09/25 13:11:10;;;;;;;0.45;0.45;;;;;;;22.60;73.87;99144.88;15258514;19;20027;-53
2023/09/25 13:16:36;;;;;;;0.88;0.50;;;;;;;22.70;66.63;99143.53;15268122;19;20015;-51
2023/09/25 13:22:08;;;;;;;1.42;0.57;;;;;;;22.96;68.87;99139.75;15268913;19;20391;-51
2023/09/25 13:27:53;;;;;;;0.90;0.43;;;;;;;23.15;65.59;99145.28;15266812;19;20479;-54
2023/09/25 13:33:19;;;;;;;0.93;0.40;;;;;;;23.46;68.92;99138.03;15262899;19;20527;-57
2023/09/25 13:38:48;;;;;;;1.60;0.52;;;;;;;23.80;63.52;99142.06;15280111;19;20042;-54
2023/09/25 13:44:14;;;;;;;2.33;0.45;;;;;;;24.12;67.55;99132.81;15276549;19;20039;-52
2023/09/25 13:49:43;;;;;;;0.40;0.40;;;;;;;24.47;62.36;99126.59;15280404;19;20014;-56
2023/09/25 13:55:13;;;;;;;1.10;0.40;;;;;;;24.62;63.11;99120.63;15283315;19;20470;-51
2023/09/25 14:00:38;;;;;;;1.25;0.50;;;;;;;24.87;60.67;99125.13;15278706;19;20016;-52
2023/09/25 14:06:02;;;;;;;0.45;0.40;;;;;;;25.04;63.80;99122.50;15277919;19;20025;-54
2023/09/25 14:11:29;;;;;;;0.50;0.50;;;;;;;25.12;59.52;99121.31;15280455;19;20618;-51
2023/09/25 14:16:54;;;;;;;0.77;0.45;;;;;;;25.40;60.14;99123.34;15274430;19;20029;-51
2023/09/25 14:22:19;;;;;;;2.13;0.40;;;;;;;25.68;58.38;99117.06;15280144;19;20038;-53
2023/09/25 14:27:47;;;;;;;0.98;0.50;;;;;;;25.94;58.83;99111.22;15278704;19;20018;-54
2023/09/25 14:33:12;;;;;;;0.57;0.40;;;;;;;26.05;57.05;99098.47;15277642;19;20014;-57
2023/09/25 14:38:38;;;;;;;1.00;0.60;;;;;;;26.23;58.20;99095.53;15271892;19;20495;-53
2023/09/25 14:44:06;;;;;;;2.28;0.45;;;;;;;26.50;55.12;99099.63;15280032;19;20020;-51
2023/09/25 14:49:31;;;;;;;2.70;0.60;;;;;;;26.53;57.90;99102.72;15268083;19;20019;-59
2023/09/25 14:54:56;;;;;;;0.55;0.40;;;;;;;26.52;54.34;99108.50;15279698;19;20013;-53
2023/09/25 15:00:24;;;;;;;1.23;0.40;;;;;;;26.49;55.16;99101.53;15274247;19;20038;-57
2023/09/25 15:05:49;;;;;;;1.10;0.50;;;;;;;26.71;52.98;99100.78;15278207;19;20038;-57
2023/09/25 15:11:14;;;;;;;3.65;0.50;;;;;;;26.75;54.93;99091.72;15275781;19;20023;-57
2023/09/25 15:16:43;;;;;;;3.10;0.50;;;;;;;26.44;54.15;99099.50;15274580;19;20018;-51
2023/09/25 15:22:07;;;;;;;0.85;0.40;;;;;;;26.37;55.73;99096.06;15269807;19;20014;-53
2023/09/25 15:27:33;;;;;;;3.28;0.43;;;;;;;26.25;54.65;99089.78;15274087;19;20018;-58
2023/09/25 15:33:01;;;;;;;0.60;0.43;;;;;;;26.07;55.61;99083.34;15271082;19;20475;-54
2023/09/25 15:38:34;;;;;;;2.13;0.50;;;;;;;25.90;54.62;99082.47;15267267;19;20014;-58
2023/09/25 15:43:59;;;;;;;34.03;4.40;;;;;;;25.69;55.25;99079.28;15275419;19;20014;-53
2023/09/25 15:49:26;;;;;;;0.35;0.30;;;;;;;25.54;57.38;99069.63;15272332;19;20467;-58
2023/09/25 15:54:51;;;;;;;3.72;0.50;;;;;;;25.50;56.64;99079.44;15265392;19;20014;-54
2023/09/25 16:00:14;;;;;;;3.33;0.60;;;;;;;25.40;58.77;99062.66;15270177;19;20082;-54
2023/09/25 16:05:43;;;;;;;0.63;0.50;;;;;;;25.30;58.72;99070.72;15270775;19;20032;-56
2023/09/25 16:11:09;;;;;;;0.68;0.50;;;;;;;25.14;60.05;99073.13;15265831;19;20014;-52
2023/09/25 16:16:34;;;;;;;0.60;0.47;;;;;;;24.89;61.11;99074.19;15268882;19;20471;-54
2023/09/25 16:22:04;;;;;;;2.58;0.50;;;;;;;24.42;61.11;99074.09;15270404;19;20006;-52
2023/09/25 16:27:30;;;;;;;1.23;0.40;;;;;;;23.83;62.52;99066.47;15268748;19;20035;-52
2023/09/25 16:32:55;;;;;;;1.90;0.80;;;;;;;23.28;65.45;99070.13;15265108;19;20010;-56
2023/09/25 16:38:24;;;;;;;2.13;0.63;;;;;;;22.82;67.74;99075.81;15267496;19;20042;-54
2023/09/25 16:43:49;;;;;;;2.67;0.60;;;;;;;22.39;71.49;99084.81;15267136;19;20426;-53
2023/09/25 16:49:14;;;;;;;2.25;0.50;;;;;;;22.06;75.99;99083.97;15266896;19;20740;-55
2023/09/25 16:54:42;;;;;;;1.45;0.60;;;;;;;21.64;78.87;99086.28;15267627;19;20523;-54
2023/09/25 17:00:07;;;;;;;1.13;0.60;;;;;;;21.24;86.00;99081.75;15264576;19;20025;-54
2023/09/25 17:05:33;;;;;;;0.50;0.50;;;;;;;20.89;90.93;99085.59;15267479;19;20014;-51
2023/09/25 17:11:01;;;;;;;0.93;0.57;;;;;;;20.53;95.79;99091.50;15266504;19;20026;-53
2023/09/25 17:16:26;;;;;;;2.63;0.70;;;;;;;20.19;100.00;99085.13;15260649;19;20018;-55
2023/09/25 17:21:50;;;;;;;1.40;0.60;;;;;;;19.86;100.00;99084.88;15267192;19;20017;-53
2023/09/25 17:27:18;;;;;;;1.88;0.60;;;;;;;19.60;100.00;99095.66;15257405;19;20093;-52
2023/09/25 17:32:43;;;;;;;2.08;0.60;;;;;;;19.37;100.00;99094.91;15262081;19;20025;-51
2023/09/25 17:38:09;;;;;;;0.95;0.60;;;;;;;19.16;100.00;99100.47;15258127;19;20028;-51
2023/09/25 17:43:44;;;;;;;2.00;0.98;;;;;;;18.94;100.00;99095.06;15260862;19;20021;-52
2023/09/25 17:49:10;;;;;;;2.45;0.70;;;;;;;18.72;100.00;99097.81;15254242;19;20006;-51
2023/09/25 17:54:34;;;;;;;3.63;0.80;;;;;;;18.54;100.00;99109.22;15260380;19;20014;-50
2023/09/25 18:00:03;;;;;;;2.92;0.77;;;;;;;18.41;100.00;99107.19;15253929;19;20027;-53
2023/09/25 18:05:27;;;;;;;2.17;0.60;;;;;;;18.32;100.00;99111.97;15265189;19;20007;-52
2023/09/25 18:10:53;;;;;;;1.75;0.60;;;;;;;18.22;100.00;99113.31;15262479;19;20081;-51
2023/09/25 18:16:20;;;;;;;1.95;0.80;;;;;;;18.08;100.00;99110.44;15262778;19;20025;-52
2023/09/25 18:21:46;;;;;;;1.20;0.70;;;;;;;17.96;100.00;99122.84;15269213;19;20734;-55
2023/09/25 18:27:11;;;;;;;0.93;0.80;;;;;;;17.81;100.00;99123.75;15279690;19;20529;-55
2023/09/25 18:32:40;;;;;;;2.72;0.80;;;;;;;17.66;100.00;99125.66;15270198;19;20118;-51
2023/09/25 18:38:04;;;;;;;0.90;0.80;;;;;;;17.44;100.00;99125.59;15273999;19;20490;-57
2023/09/25 18:43:35;;;;;;;1.95;0.70;;;;;;;17.29;100.00;99127.44;15271844;19;20014;-55
2023/09/25 18:49:03;;;;;;;1.80;0.80;;;;;;;17.10;100.00;99122.38;15273987;19;20078;-53
2023/09/25 18:54:28;;;;;;;1.15;0.80;;;;;;;16.94;100.00;99117.94;15267751;19;20016;-58
2023/09/25 18:59:53;;;;;;;1.13;0.80;;;;;;;16.71;100.00;99122.56;15274696;19;20058;-52
2023/09/25 19:05:23;;;;;;;1.73;0.80;;;;;;;16.59;100.00;99123.00;15267309;19;20022;-59
2023/09/25 19:10:49;;;;;;;1.10;0.70;;;;;;;16.48;100.00;99123.44;15272898;19;20018;-56
2023/09/25 19:16:14;;;;;;;1.52;0.88;;;;;;;16.39;100.00;99125.38;15274507;19;20803;-55
2023/09/25 19:21:42;;;;;;;2.25;0.90;;;;;;;16.24;100.00;99122.59;15276170;19;20018;-55
2023/09/25 19:27:09;;;;;;;4.10;0.90;;;;;;;16.13;100.00;99123.84;15268058;19;20015;-55
2023/09/25 19:32:34;;;;;;;1.75;1.00;;;;;;;15.99;100.00;99125.47;15270545;19;20073;-56
2023/09/25 19:38:02;;;;;;;2.13;1.00;;;;;;;15.89;100.00;99126.69;15265076;19;20093;-55
2023/09/25 19:43:33;;;;;;;1.27;0.90;;;;;;;15.77;100.00;99131.69;15270016;19;20692;-49
2023/09/25 19:48:58;;;;;;;2.28;0.90;;;;;;;15.66;100.00;99122.91;15267384;19;20026;-53
2023/09/25 19:54:25;;;;;;;0.93;0.68;;;;;;;15.57;100.00;99116.66;15271274;19;20570;-49
2023/09/25 19:59:50;;;;;;;1.42;0.93;;;;;;;15.51;100.00;99113.78;15262543;19;20094;-52
2023/09/25 20:05:17;;;;;;;1.15;0.80;;;;;;;15.39;100.00;99116.88;15274157;19;20021;-49
2023/09/25 20:10:48;;;;;;;2.47;1.10;;;;;;;15.31;100.00;99116.06;15261322;19;20522;-52
2023/09/25 20:16:13;;;;;;;1.85;1.05;;;;;;;15.19;100.00;99126.47;15271386;19;20031;-50
2023/09/25 20:21:38;;;;;;;1.00;0.80;;;;;;;15.14;100.00;99124.28;15270171;19;20379;-49
2023/09/25 20:27:05;;;;;;;2.17;0.82;;;;;;;15.09;100.00;99124.81;15268396;19;20463;-53
2023/09/25 20:32:30;;;;;;;1.15;0.80;;;;;;;15.06;100.00;99125.13;15261733;19;20459;-51
2023/09/25 20:37:54;;;;;;;1.65;0.90;;;;;;;15.05;100.00;99123.44;15267013;19;20016;-54
2023/09/25 20:43:28;;;;;;;1.92;0.90;;;;;;;15.07;100.00;99121.41;15258682;19;20033;-48
2023/09/25 20:48:53;;;;;;;3.40;0.85;;;;;;;15.06;100.00;99127.84;15269672;19;20028;-53
2023/09/25 20:54:20;;;;;;;1.42;0.80;;;;;;;15.00;100.00;99123.09;15266296;19;20018;-48
2023/09/25 20:59:50;;;;;;;2.78;0.70;;;;;;;14.93;100.00;99122.94;15267561;19;20029;-49
2023/09/25 21:05:15;;;;;;;0.77;0.50;;;;;;;14.86;100.00;99129.25;15268540;19;20478;-53
2023/09/25 21:10:40;;;;;;;0.98;0.77;;;;;;;14.73;100.00;99119.78;15267387;19;20585;-51
2023/09/25 21:16:08;;;;;;;1.38;0.80;;;;;;;14.58;100.00;99127.69;14755188;19;10000814;-52
2023/09/25 21:21:39;;;;;;;1.45;0.90;;;;;;;14.44;100.00;99126.50;15271396;19;20007;-52
2023/09/25 21:27:04;;;;;;;4.65;1.27;;;;;;;14.30;100.00;99124.47;15268936;19;20090;-52
2023/09/25 21:32:31;;;;;;;2.28;0.80;;;;;;;14.22;100.00;99127.19;15270530;19;20352;-50
2023/09/25 21:37:56;;;;;;;1.02;0.80;;;;;;;14.18;100.00;99127.50;15263351;19;20078;-51
2023/09/25 21:43:20;;;;;;;2.03;0.90;;;;;;;14.13;100.00;99127.19;15268315;19;20074;-52
2023/09/25 21:48:50;;;;;;;1.20;0.90;;;;;;;14.13;100.00;99129.88;15261846;19;20015;-51
2023/09/25 21:54:16;;;;;;;2.17;1.00;;;;;;;14.12;100.00;99128.19;15272455;19;20019;-52
2023/09/25 21:59:41;;;;;;;1.65;0.98;;;;;;;14.11;100.00;99136.50;15278709;19;20010;-50
2023/09/25 22:05:10;;;;;;;1.15;0.90;;;;;;;14.05;100.00;99138.00;15285626;19;20336;-48
2023/09/25 22:10:36;;;;;;;3.75;1.10;;;;;;;14.05;100.00;99131.72;15273258;19;20082;-51
2023/09/25 22:16:00;;;;;;;1.30;0.90;;;;;;;13.98;100.00;99126.13;15277940;19;20015;-48
2023/09/25 22:21:30;;;;;;;1.55;1.00;;;;;;;13.94;100.00;99127.44;15275990;19;20014;-52
2023/09/25 22:26:55;;;;;;;1.67;1.00;;;;;;;13.85;100.00;99118.47;15279677;19;20359;-50
2023/09/25 22:32:19;;;;;;;1.38;1.00;;;;;;;13.73;100.00;99127.91;15283380;19;20557;-47
2023/09/25 22:37:46;;;;;;;2.22;0.90;;;;;;;13.47;100.00;99118.84;15279609;19;20018;-48
2023/09/25 22:43:12;;;;;;;3.67;1.00;;;;;;;13.36;100.00;99114.56;15279764;19;20025;-48
2023/09/25 22:48:37;;;;;;;2.13;1.10;;;;;;;13.31;100.00;99125.00;15277863;19;20489;-53
2023/09/25 22:54:05;;;;;;;2.70;1.00;;;;;;;13.26;100.00;99127.38;15272074;19;20053;-51
2023/09/25 22:59:30;;;;;;;2.20;1.13;;;;;;;13.22;100.00;99134.97;15275895;19;20078;-50
2023/09/25 23:04:54;;;;;;;1.63;1.20;;;;;;;13.24;100.00;99134.78;15279411;19;20014;-53
2023/09/25 23:10:24;;;;;;;1.10;1.00;;;;;;;13.22;100.00;99136.81;15271339;19;20086;-53
2023/09/25 23:15:48;;;;;;;2.17;1.10;;;;;;;13.16;100.00;99132.03;15274632;19;20015;-53
2023/09/25 23:21:13;;;;;;;1.75;1.10;;;;;;;13.14;100.00;99126.78;15278879;19;20017;-51
2023/09/25 23:26:40;;;;;;;2.40;1.00;;;;;;;13.16;100.00;99127.47;15270467;19;20018;-51
2023/09/25 23:32:05;;;;;;;1.63;1.00;;;;;;;13.16;100.00;99111.22;15276844;19;20406;-49
2023/09/25 23:37:31;;;;;;;2.35;0.90;;;;;;;13.17;100.00;99121.06;15276796;19;20035;-50
2023/09/25 23:42:58;;;;;;;1.45;1.00;;;;;;;13.20;100.00;99115.31;15269136;19;20010;-49
2023/09/25 23:48:24;;;;;;;2.70;1.02;;;;;;;13.16;100.00;99116.66;15274461;19;20035;-52
2023/09/25 23:53:49;;;;;;;1.55;1.08;;;;;;;13.04;100.00;99107.09;15275666;19;20011;-54
2023/09/25 23:59:16;;;;;;;1.77;1.00;;;;;;;12.93;100.00;99111.78;15273742;19;20014;-52
